YCEM weather

Coldstream Airport
Coldstream, Victoria, Australia

Public forecast

Using degrees Celsius for public forecast. Weather courtesy of forecast.io.

METAR (pilot weather report)

Closest report is Melbourne Essendon Airport, 24.0 nm (44.5 km) W. Retrieved 2018/10/18 10:00 UTC (57 minutes ago):

YMEN 181000Z AUTO 35008KT 9999 // OVC060 18/12 Q1016

TAF (pilot weather forecast)

Closest forecast is Melbourne International Airport, 27.1 nm (50.1 km) W. Retrieved 2018/10/18 06:46 UTC (4 hours ago):

TAF YMML 180507Z 1806/1912 33014KT 9999 -SHRA SCT040 BKN060 FM180900 35008KT 9999 BKN040 FM181300 36012KT 9999 FEW045 FM182100 36018G30KT CAVOK FM190700 01016KT CAVOK